sensor_id;sensor_type;location;lat;lon;timestamp;temperature;humidity
32865;DHT22;19219;44.500;11.188;2023-07-29T00:01:27;22.70;99.90
32865;DHT22;19219;44.500;11.188;2023-07-29T00:03:53;22.60;99.90
32865;DHT22;19219;44.500;11.188;2023-07-29T00:06:18;22.60;99.90
32865;DHT22;19219;44.500;11.188;2023-07-29T00:08:44;22.40;99.90
32865;DHT22;19219;44.500;11.188;2023-07-29T00:11:10;22.40;99.90
32865;DHT22;19219;44.500;11.188;2023-07-29T00:13:35;22.40;99.90
32865;DHT22;19219;44.500;11.188;2023-07-29T00:16:01;22.20;99.90
32865;DHT22;19219;44.500;11.188;2023-07-29T00:18:27;22.00;99.90
32865;DHT22;19219;44.500;11.188;2023-07-29T00:20:53;21.90;99.90
32865;DHT22;19219;44.500;11.188;2023-07-29T00:23:18;21.90;99.90
32865;DHT22;19219;44.500;11.188;2023-07-29T00:25:45;21.80;99.90
32865;DHT22;19219;44.500;11.188;2023-07-29T00:28:11;21.70;99.90
32865;DHT22;19219;44.500;11.188;2023-07-29T00:30:37;21.70;99.90
32865;DHT22;19219;44.500;11.188;2023-07-29T00:33:03;21.70;99.90
32865;DHT22;19219;44.500;11.188;2023-07-29T00:35:29;21.70;99.90
32865;DHT22;19219;44.500;11.188;2023-07-29T00:37:54;21.70;99.90
32865;DHT22;19219;44.500;11.188;2023-07-29T00:40:21;21.80;99.90
32865;DHT22;19219;44.500;11.188;2023-07-29T00:42:48;21.70;99.90
32865;DHT22;19219;44.500;11.188;2023-07-29T00:45:14;21.80;99.90
32865;DHT22;19219;44.500;11.188;2023-07-29T00:47:40;21.80;99.90
32865;DHT22;19219;44.500;11.188;2023-07-29T00:50:07;21.70;99.90
32865;DHT22;19219;44.500;11.188;2023-07-29T00:52:34;21.70;99.90
32865;DHT22;19219;44.500;11.188;2023-07-29T00:55:00;21.70;99.90
32865;DHT22;19219;44.500;11.188;2023-07-29T00:57:26;21.80;99.90
32865;DHT22;19219;44.500;11.188;2023-07-29T00:59:54;21.80;99.90
32865;DHT22;19219;44.500;11.188;2023-07-29T01:02:20;21.70;99.90
32865;DHT22;19219;44.500;11.188;2023-07-29T01:04:54;21.50;99.90
32865;DHT22;19219;44.500;11.188;2023-07-29T01:10:36;21.40;99.90
32865;DHT22;19219;44.500;11.188;2023-07-29T01:12:54;21.30;99.90
32865;DHT22;19219;44.500;11.188;2023-07-29T01:17:57;21.20;99.90
32865;DHT22;19219;44.500;11.188;2023-07-29T01:20:24;21.30;99.90
32865;DHT22;19219;44.500;11.188;2023-07-29T01:22:51;21.30;99.90
32865;DHT22;19219;44.500;11.188;2023-07-29T01:25:17;21.30;99.90
32865;DHT22;19219;44.500;11.188;2023-07-29T01:27:45;21.20;99.90
32865;DHT22;19219;44.500;11.188;2023-07-29T01:30:11;21.10;99.90
32865;DHT22;19219;44.500;11.188;2023-07-29T01:33:35;21.10;99.90
32865;DHT22;19219;44.500;11.188;2023-07-29T01:40:42;21.50;99.90
32865;DHT22;19219;44.500;11.188;2023-07-29T01:43:10;21.60;99.90
32865;DHT22;19219;44.500;11.188;2023-07-29T01:45:36;21.60;99.90
32865;DHT22;19219;44.500;11.188;2023-07-29T01:48:05;21.60;99.90
32865;DHT22;19219;44.500;11.188;2023-07-29T01:50:31;21.50;99.90
32865;DHT22;19219;44.500;11.188;2023-07-29T01:53:00;21.50;99.90
32865;DHT22;19219;44.500;11.188;2023-07-29T01:55:26;21.30;99.90
32865;DHT22;19219;44.500;11.188;2023-07-29T01:57:51;21.00;99.90
32865;DHT22;19219;44.500;11.188;2023-07-29T02:00:18;20.90;99.90
32865;DHT22;19219;44.500;11.188;2023-07-29T02:02:44;20.70;99.90
32865;DHT22;19219;44.500;11.188;2023-07-29T02:05:10;20.70;99.90
32865;DHT22;19219;44.500;11.188;2023-07-29T02:07:36;20.60;99.90
32865;DHT22;19219;44.500;11.188;2023-07-29T02:10:01;20.70;99.90
32865;DHT22;19219;44.500;11.188;2023-07-29T02:12:27;20.80;99.90
32865;DHT22;19219;44.500;11.188;2023-07-29T02:14:53;20.80;99.90
32865;DHT22;19219;44.500;11.188;2023-07-29T02:17:19;20.80;99.90
32865;DHT22;19219;44.500;11.188;2023-07-29T02:19:44;20.80;99.90
32865;DHT22;19219;44.500;11.188;2023-07-29T02:22:13;20.70;99.90
32865;DHT22;19219;44.500;11.188;2023-07-29T02:24:39;20.80;99.90
32865;DHT22;19219;44.500;11.188;2023-07-29T02:27:05;20.80;99.90
32865;DHT22;19219;44.500;11.188;2023-07-29T02:29:30;20.80;99.90
32865;DHT22;19219;44.500;11.188;2023-07-29T02:31:58;20.70;99.90
32865;DHT22;19219;44.500;11.188;2023-07-29T02:34:24;20.70;99.90
32865;DHT22;19219;44.500;11.188;2023-07-29T02:36:50;20.70;99.90
32865;DHT22;19219;44.500;11.188;2023-07-29T02:39:16;20.70;99.90
32865;DHT22;19219;44.500;11.188;2023-07-29T02:41:41;20.70;99.90
32865;DHT22;19219;44.500;11.188;2023-07-29T02:44:07;20.60;99.90
32865;DHT22;19219;44.500;11.188;2023-07-29T02:46:33;20.60;99.90
32865;DHT22;19219;44.500;11.188;2023-07-29T02:48:58;20.60;99.90
32865;DHT22;19219;44.500;11.188;2023-07-29T02:51:24;20.50;99.90
32865;DHT22;19219;44.500;11.188;2023-07-29T02:53:50;20.50;99.90
32865;DHT22;19219;44.500;11.188;2023-07-29T02:56:15;20.40;99.90
32865;DHT22;19219;44.500;11.188;2023-07-29T02:58:41;20.30;99.90
32865;DHT22;19219;44.500;11.188;2023-07-29T03:01:07;20.40;99.90
32865;DHT22;19219;44.500;11.188;2023-07-29T03:03:33;20.40;99.90
32865;DHT22;19219;44.500;11.188;2023-07-29T03:06:05;20.50;99.90
32865;DHT22;19219;44.500;11.188;2023-07-29T03:08:31;20.40;99.90
32865;DHT22;19219;44.500;11.188;2023-07-29T03:10:57;20.40;99.90
32865;DHT22;19219;44.500;11.188;2023-07-29T03:13:23;20.40;99.90
32865;DHT22;19219;44.500;11.188;2023-07-29T03:15:49;20.60;99.90
32865;DHT22;19219;44.500;11.188;2023-07-29T03:18:15;20.80;99.90
32865;DHT22;19219;44.500;11.188;2023-07-29T03:20:41;20.90;99.90
32865;DHT22;19219;44.500;11.188;2023-07-29T03:23:06;21.00;99.90
32865;DHT22;19219;44.500;11.188;2023-07-29T03:25:32;21.00;99.90
32865;DHT22;19219;44.500;11.188;2023-07-29T03:27:58;21.00;99.90
32865;DHT22;19219;44.500;11.188;2023-07-29T03:30:24;20.90;99.90
32865;DHT22;19219;44.500;11.188;2023-07-29T03:32:50;20.80;99.90
32865;DHT22;19219;44.500;11.188;2023-07-29T03:35:16;20.70;99.90
32865;DHT22;19219;44.500;11.188;2023-07-29T03:37:42;20.70;99.90
32865;DHT22;19219;44.500;11.188;2023-07-29T03:40:08;20.70;99.90
32865;DHT22;19219;44.500;11.188;2023-07-29T03:42:36;20.70;99.90
32865;DHT22;19219;44.500;11.188;2023-07-29T03:45:02;20.70;99.90
32865;DHT22;19219;44.500;11.188;2023-07-29T03:47:28;20.70;99.90
32865;DHT22;19219;44.500;11.188;2023-07-29T03:49:54;20.70;99.90
32865;DHT22;19219;44.500;11.188;2023-07-29T03:52:19;20.60;99.90
32865;DHT22;19219;44.500;11.188;2023-07-29T03:54:45;20.40;99.90
32865;DHT22;19219;44.500;11.188;2023-07-29T03:57:11;20.30;99.90
32865;DHT22;19219;44.500;11.188;2023-07-29T03:59:36;20.20;99.90
32865;DHT22;19219;44.500;11.188;2023-07-29T04:02:02;20.20;99.90
32865;DHT22;19219;44.500;11.188;2023-07-29T04:04:28;20.10;99.90
32865;DHT22;19219;44.500;11.188;2023-07-29T04:06:53;20.20;99.90
32865;DHT22;19219;44.500;11.188;2023-07-29T04:09:19;20.20;99.90
32865;DHT22;19219;44.500;11.188;2023-07-29T04:11:45;20.20;99.90
32865;DHT22;19219;44.500;11.188;2023-07-29T04:14:10;20.20;99.90
32865;DHT22;19219;44.500;11.188;2023-07-29T04:16:36;20.30;99.90
32865;DHT22;19219;44.500;11.188;2023-07-29T04:19:02;20.30;99.90
32865;DHT22;19219;44.500;11.188;2023-07-29T04:21:27;20.30;99.90
32865;DHT22;19219;44.500;11.188;2023-07-29T04:23:53;20.30;99.90
32865;DHT22;19219;44.500;11.188;2023-07-29T04:26:19;20.30;99.90
32865;DHT22;19219;44.500;11.188;2023-07-29T04:28:44;20.30;99.90
32865;DHT22;19219;44.500;11.188;2023-07-29T04:31:10;20.40;99.90
32865;DHT22;19219;44.500;11.188;2023-07-29T04:33:36;20.40;99.90
32865;DHT22;19219;44.500;11.188;2023-07-29T04:36:01;20.40;99.90
32865;DHT22;19219;44.500;11.188;2023-07-29T04:38:31;20.40;99.90
32865;DHT22;19219;44.500;11.188;2023-07-29T04:40:58;20.30;99.90
32865;DHT22;19219;44.500;11.188;2023-07-29T04:43:31;20.30;99.90
32865;DHT22;19219;44.500;11.188;2023-07-29T04:45:57;20.40;99.90
32865;DHT22;19219;44.500;11.188;2023-07-29T04:48:23;20.40;99.90
32865;DHT22;19219;44.500;11.188;2023-07-29T04:50:48;20.50;99.90
32865;DHT22;19219;44.500;11.188;2023-07-29T04:53:14;20.50;99.90
32865;DHT22;19219;44.500;11.188;2023-07-29T04:55:42;20.60;99.90
32865;DHT22;19219;44.500;11.188;2023-07-29T04:58:08;20.70;99.90
32865;DHT22;19219;44.500;11.188;2023-07-29T05:00:34;20.70;99.90
32865;DHT22;19219;44.500;11.188;2023-07-29T05:03:00;20.80;99.90
32865;DHT22;19219;44.500;11.188;2023-07-29T05:05:26;20.90;99.90
32865;DHT22;19219;44.500;11.188;2023-07-29T05:07:52;21.00;99.90
32865;DHT22;19219;44.500;11.188;2023-07-29T05:10:18;21.10;99.90
32865;DHT22;19219;44.500;11.188;2023-07-29T05:12:44;21.20;99.90
32865;DHT22;19219;44.500;11.188;2023-07-29T05:15:10;21.20;99.90
32865;DHT22;19219;44.500;11.188;2023-07-29T05:17:35;21.30;99.90
32865;DHT22;19219;44.500;11.188;2023-07-29T05:20:01;21.40;99.90
32865;DHT22;19219;44.500;11.188;2023-07-29T05:22:27;21.50;99.90
32865;DHT22;19219;44.500;11.188;2023-07-29T05:24:52;21.60;99.90
32865;DHT22;19219;44.500;11.188;2023-07-29T05:27:18;21.70;99.90
32865;DHT22;19219;44.500;11.188;2023-07-29T05:29:44;21.80;99.90
32865;DHT22;19219;44.500;11.188;2023-07-29T05:32:09;21.90;99.90
32865;DHT22;19219;44.500;11.188;2023-07-29T05:34:35;22.00;99.90
32865;DHT22;19219;44.500;11.188;2023-07-29T05:37:01;22.10;99.90
32865;DHT22;19219;44.500;11.188;2023-07-29T05:39:27;22.20;99.90
32865;DHT22;19219;44.500;11.188;2023-07-29T05:41:52;22.40;99.90
32865;DHT22;19219;44.500;11.188;2023-07-29T05:44:18;22.50;99.90
32865;DHT22;19219;44.500;11.188;2023-07-29T05:46:43;22.70;99.90
32865;DHT22;19219;44.500;11.188;2023-07-29T05:49:09;22.80;99.90
32865;DHT22;19219;44.500;11.188;2023-07-29T05:51:35;23.00;99.90
32865;DHT22;19219;44.500;11.188;2023-07-29T05:54:01;23.10;99.90
32865;DHT22;19219;44.500;11.188;2023-07-29T05:56:26;23.30;99.90
32865;DHT22;19219;44.500;11.188;2023-07-29T05:58:52;23.40;99.90
32865;DHT22;19219;44.500;11.188;2023-07-29T06:01:18;23.50;99.90
32865;DHT22;19219;44.500;11.188;2023-07-29T06:03:46;23.60;99.90
32865;DHT22;19219;44.500;11.188;2023-07-29T06:06:12;23.80;99.90
32865;DHT22;19219;44.500;11.188;2023-07-29T06:08:38;24.00;99.90
32865;DHT22;19219;44.500;11.188;2023-07-29T06:11:04;24.00;99.90
32865;DHT22;19219;44.500;11.188;2023-07-29T06:13:32;24.10;99.90
32865;DHT22;19219;44.500;11.188;2023-07-29T06:15:58;24.10;99.90
32865;DHT22;19219;44.500;11.188;2023-07-29T06:18:24;24.20;99.90
32865;DHT22;19219;44.500;11.188;2023-07-29T06:20:51;24.30;99.90
32865;DHT22;19219;44.500;11.188;2023-07-29T06:23:16;24.30;99.90
32865;DHT22;19219;44.500;11.188;2023-07-29T06:25:42;24.40;99.90
32865;DHT22;19219;44.500;11.188;2023-07-29T06:28:09;25.10;99.90
32865;DHT22;19219;44.500;11.188;2023-07-29T06:30:35;26.00;99.90
32865;DHT22;19219;44.500;11.188;2023-07-29T06:33:00;27.00;99.90
32865;DHT22;19219;44.500;11.188;2023-07-29T06:35:28;27.70;99.90
32865;DHT22;19219;44.500;11.188;2023-07-29T06:37:54;28.30;99.90
32865;DHT22;19219;44.500;11.188;2023-07-29T06:40:19;28.80;99.90
32865;DHT22;19219;44.500;11.188;2023-07-29T06:42:45;29.10;99.90
32865;DHT22;19219;44.500;11.188;2023-07-29T06:45:11;29.40;99.90
32865;DHT22;19219;44.500;11.188;2023-07-29T06:47:37;29.50;99.90
32865;DHT22;19219;44.500;11.188;2023-07-29T06:50:03;29.50;99.90
32865;DHT22;19219;44.500;11.188;2023-07-29T06:52:29;29.80;99.90
32865;DHT22;19219;44.500;11.188;2023-07-29T06:54:54;30.10;99.90
32865;DHT22;19219;44.500;11.188;2023-07-29T06:57:20;30.30;99.90
32865;DHT22;19219;44.500;11.188;2023-07-29T06:59:46;30.30;99.90
32865;DHT22;19219;44.500;11.188;2023-07-29T07:02:12;30.50;99.90
32865;DHT22;19219;44.500;11.188;2023-07-29T07:04:37;30.60;99.90
32865;DHT22;19219;44.500;11.188;2023-07-29T07:07:03;30.70;99.90
32865;DHT22;19219;44.500;11.188;2023-07-29T07:09:29;31.00;99.90
32865;DHT22;19219;44.500;11.188;2023-07-29T07:11:54;30.90;99.90
32865;DHT22;19219;44.500;11.188;2023-07-29T07:14:20;31.00;99.90
32865;DHT22;19219;44.500;11.188;2023-07-29T07:16:46;31.30;99.90
32865;DHT22;19219;44.500;11.188;2023-07-29T07:19:11;31.40;99.90
32865;DHT22;19219;44.500;11.188;2023-07-29T07:21:37;31.50;99.90
32865;DHT22;19219;44.500;11.188;2023-07-29T07:24:03;31.60;99.90
32865;DHT22;19219;44.500;11.188;2023-07-29T07:26:28;31.80;99.90
32865;DHT22;19219;44.500;11.188;2023-07-29T07:28:54;31.90;99.90
32865;DHT22;19219;44.500;11.188;2023-07-29T07:31:20;32.20;99.90
32865;DHT22;19219;44.500;11.188;2023-07-29T07:33:45;32.30;99.90
32865;DHT22;19219;44.500;11.188;2023-07-29T07:36:11;32.30;99.90
32865;DHT22;19219;44.500;11.188;2023-07-29T07:38:37;32.40;99.90
32865;DHT22;19219;44.500;11.188;2023-07-29T07:41:02;32.60;99.90
32865;DHT22;19219;44.500;11.188;2023-07-29T07:43:28;32.90;99.90
32865;DHT22;19219;44.500;11.188;2023-07-29T07:45:58;33.00;99.90
32865;DHT22;19219;44.500;11.188;2023-07-29T07:48:25;33.10;99.90
32865;DHT22;19219;44.500;11.188;2023-07-29T07:50:51;33.20;99.90
32865;DHT22;19219;44.500;11.188;2023-07-29T07:53:16;33.40;99.90
32865;DHT22;19219;44.500;11.188;2023-07-29T07:55:42;33.20;99.00
32865;DHT22;19219;44.500;11.188;2023-07-29T07:58:08;33.00;99.60
32865;DHT22;19219;44.500;11.188;2023-07-29T08:00:33;32.90;99.50
32865;DHT22;19219;44.500;11.188;2023-07-29T08:02:59;33.20;99.30
32865;DHT22;19219;44.500;11.188;2023-07-29T08:05:26;33.20;98.80
32865;DHT22;19219;44.500;11.188;2023-07-29T08:07:52;33.50;98.40
32865;DHT22;19219;44.500;11.188;2023-07-29T08:10:17;33.40;98.20
32865;DHT22;19219;44.500;11.188;2023-07-29T08:12:44;33.40;98.00
32865;DHT22;19219;44.500;11.188;2023-07-29T08:15:10;33.60;98.70
32865;DHT22;19219;44.500;11.188;2023-07-29T08:17:35;33.70;97.40
32865;DHT22;19219;44.500;11.188;2023-07-29T08:20:01;34.00;97.00
32865;DHT22;19219;44.500;11.188;2023-07-29T08:22:26;34.00;96.80
32865;DHT22;19219;44.500;11.188;2023-07-29T08:24:52;34.00;96.00
32865;DHT22;19219;44.500;11.188;2023-07-29T08:27:18;34.30;95.60
32865;DHT22;19219;44.500;11.188;2023-07-29T08:29:44;34.30;95.20
32865;DHT22;19219;44.500;11.188;2023-07-29T08:32:09;34.30;95.40
32865;DHT22;19219;44.500;11.188;2023-07-29T08:34:35;34.50;95.60
32865;DHT22;19219;44.500;11.188;2023-07-29T08:37:01;34.60;94.60
32865;DHT22;19219;44.500;11.188;2023-07-29T08:39:27;34.40;94.30
32865;DHT22;19219;44.500;11.188;2023-07-29T08:42:03;34.20;94.40
32865;DHT22;19219;44.500;11.188;2023-07-29T08:44:40;34.20;94.50
32865;DHT22;19219;44.500;11.188;2023-07-29T08:47:06;34.30;93.60
32865;DHT22;19219;44.500;11.188;2023-07-29T08:49:32;34.30;93.70
32865;DHT22;19219;44.500;11.188;2023-07-29T08:51:58;34.30;93.70
32865;DHT22;19219;44.500;11.188;2023-07-29T08:54:25;34.30;93.40
32865;DHT22;19219;44.500;11.188;2023-07-29T08:56:51;34.50;93.00
32865;DHT22;19219;44.500;11.188;2023-07-29T08:59:16;34.50;92.60
32865;DHT22;19219;44.500;11.188;2023-07-29T09:01:43;34.50;92.80
32865;DHT22;19219;44.500;11.188;2023-07-29T09:04:09;34.40;92.40
32865;DHT22;19219;44.500;11.188;2023-07-29T09:06:36;34.40;93.10
32865;DHT22;19219;44.500;11.188;2023-07-29T09:09:03;34.50;92.00
32865;DHT22;19219;44.500;11.188;2023-07-29T09:11:30;34.20;93.30
32865;DHT22;19219;44.500;11.188;2023-07-29T09:13:56;34.30;93.00
32865;DHT22;19219;44.500;11.188;2023-07-29T09:16:22;34.20;92.80
32865;DHT22;19219;44.500;11.188;2023-07-29T09:18:49;34.30;91.90
32865;DHT22;19219;44.500;11.188;2023-07-29T09:21:24;34.40;92.80
32865;DHT22;19219;44.500;11.188;2023-07-29T09:23:52;34.50;92.10
32865;DHT22;19219;44.500;11.188;2023-07-29T09:26:26;34.50;92.70
32865;DHT22;19219;44.500;11.188;2023-07-29T09:28:59;34.50;92.00
32865;DHT22;19219;44.500;11.188;2023-07-29T09:31:26;34.40;92.30
32865;DHT22;19219;44.500;11.188;2023-07-29T09:33:59;34.50;92.10
32865;DHT22;19219;44.500;11.188;2023-07-29T09:36:26;34.50;92.30
32865;DHT22;19219;44.500;11.188;2023-07-29T09:38:56;34.50;92.40
32865;DHT22;19219;44.500;11.188;2023-07-29T09:41:27;34.10;91.70
32865;DHT22;19219;44.500;11.188;2023-07-29T09:43:57;33.90;92.60
32865;DHT22;19219;44.500;11.188;2023-07-29T09:46:24;33.90;93.10
32865;DHT22;19219;44.500;11.188;2023-07-29T09:48:53;33.90;93.10
32865;DHT22;19219;44.500;11.188;2023-07-29T09:51:20;34.00;93.10
32865;DHT22;19219;44.500;11.188;2023-07-29T09:53:47;34.20;93.60
32865;DHT22;19219;44.500;11.188;2023-07-29T09:56:16;34.00;94.00
32865;DHT22;19219;44.500;11.188;2023-07-29T09:58:46;34.00;93.00
32865;DHT22;19219;44.500;11.188;2023-07-29T10:01:14;34.00;93.20
32865;DHT22;19219;44.500;11.188;2023-07-29T10:03:40;34.00;92.80
32865;DHT22;19219;44.500;11.188;2023-07-29T10:06:07;34.00;93.80
32865;DHT22;19219;44.500;11.188;2023-07-29T10:08:33;34.00;93.30
32865;DHT22;19219;44.500;11.188;2023-07-29T10:11:06;34.00;92.70
32865;DHT22;19219;44.500;11.188;2023-07-29T10:13:32;33.90;93.10
32865;DHT22;19219;44.500;11.188;2023-07-29T10:15:59;33.80;92.90
32865;DHT22;19219;44.500;11.188;2023-07-29T10:18:28;33.70;93.80
32865;DHT22;19219;44.500;11.188;2023-07-29T10:20:54;33.60;93.10
32865;DHT22;19219;44.500;11.188;2023-07-29T10:23:22;33.50;92.90
32865;DHT22;19219;44.500;11.188;2023-07-29T10:26:10;33.40;93.00
32865;DHT22;19219;44.500;11.188;2023-07-29T10:28:40;33.20;92.70
32865;DHT22;19219;44.500;11.188;2023-07-29T10:31:06;32.70;93.60
32865;DHT22;19219;44.500;11.188;2023-07-29T10:33:34;32.60;93.80
32865;DHT22;19219;44.500;11.188;2023-07-29T10:36:00;32.90;94.20
32865;DHT22;19219;44.500;11.188;2023-07-29T10:38:26;33.00;93.60
32865;DHT22;19219;44.500;11.188;2023-07-29T10:40:55;33.20;94.10
32865;DHT22;19219;44.500;11.188;2023-07-29T10:43:25;33.40;93.30
32865;DHT22;19219;44.500;11.188;2023-07-29T10:45:52;33.50;93.60
32865;DHT22;19219;44.500;11.188;2023-07-29T10:48:51;33.60;93.90
32865;DHT22;19219;44.500;11.188;2023-07-29T10:53:56;33.50;92.90
32865;DHT22;19219;44.500;11.188;2023-07-29T10:56:36;33.60;93.40
32865;DHT22;19219;44.500;11.188;2023-07-29T11:01:53;33.30;93.40
32865;DHT22;19219;44.500;11.188;2023-07-29T11:12:44;33.40;92.40
32865;DHT22;19219;44.500;11.188;2023-07-29T11:15:16;33.50;92.90
32865;DHT22;19219;44.500;11.188;2023-07-29T11:20:16;33.50;93.90
32865;DHT22;19219;44.500;11.188;2023-07-29T11:22:42;33.50;93.60
32865;DHT22;19219;44.500;11.188;2023-07-29T11:25:11;33.30;94.00
32865;DHT22;19219;44.500;11.188;2023-07-29T11:27:37;33.10;93.70
32865;DHT22;19219;44.500;11.188;2023-07-29T11:30:05;33.00;93.50
32865;DHT22;19219;44.500;11.188;2023-07-29T11:32:32;33.10;95.00
32865;DHT22;19219;44.500;11.188;2023-07-29T11:35:02;33.10;93.20
32865;DHT22;19219;44.500;11.188;2023-07-29T11:37:28;32.80;93.70
32865;DHT22;19219;44.500;11.188;2023-07-29T11:39:54;32.90;94.20
32865;DHT22;19219;44.500;11.188;2023-07-29T11:42:19;33.10;93.40
32865;DHT22;19219;44.500;11.188;2023-07-29T11:44:45;33.00;93.40
32865;DHT22;19219;44.500;11.188;2023-07-29T11:47:12;32.90;93.10
32865;DHT22;19219;44.500;11.188;2023-07-29T11:49:41;33.00;93.80
32865;DHT22;19219;44.500;11.188;2023-07-29T11:52:08;33.10;93.70
32865;DHT22;19219;44.500;11.188;2023-07-29T11:54:38;32.90;92.80
32865;DHT22;19219;44.500;11.188;2023-07-29T11:57:07;32.80;92.90
32865;DHT22;19219;44.500;11.188;2023-07-29T11:59:35;32.80;93.90
32865;DHT22;19219;44.500;11.188;2023-07-29T12:02:01;32.80;93.50
32865;DHT22;19219;44.500;11.188;2023-07-29T12:04:30;32.80;94.20
32865;DHT22;19219;44.500;11.188;2023-07-29T12:06:56;32.90;93.60
32865;DHT22;19219;44.500;11.188;2023-07-29T12:09:23;32.70;93.00
32865;DHT22;19219;44.500;11.188;2023-07-29T12:11:48;32.50;93.10
32865;DHT22;19219;44.500;11.188;2023-07-29T12:14:16;32.50;93.80
32865;DHT22;19219;44.500;11.188;2023-07-29T12:16:43;32.50;93.60
32865;DHT22;19219;44.500;11.188;2023-07-29T12:19:12;32.60;93.90
32865;DHT22;19219;44.500;11.188;2023-07-29T12:21:38;32.70;93.90
32865;DHT22;19219;44.500;11.188;2023-07-29T12:24:04;32.70;93.90
32865;DHT22;19219;44.500;11.188;2023-07-29T12:26:30;32.70;94.20
32865;DHT22;19219;44.500;11.188;2023-07-29T12:28:56;32.70;93.90
32865;DHT22;19219;44.500;11.188;2023-07-29T12:31:28;32.80;94.10
32865;DHT22;19219;44.500;11.188;2023-07-29T12:33:56;33.00;94.50
32865;DHT22;19219;44.500;11.188;2023-07-29T12:36:22;33.00;94.80
32865;DHT22;19219;44.500;11.188;2023-07-29T12:38:52;33.20;94.70
32865;DHT22;19219;44.500;11.188;2023-07-29T12:41:18;33.10;93.90
32865;DHT22;19219;44.500;11.188;2023-07-29T12:43:43;33.10;93.30
32865;DHT22;19219;44.500;11.188;2023-07-29T12:46:09;33.00;93.40
32865;DHT22;19219;44.500;11.188;2023-07-29T12:48:35;33.10;93.40
32865;DHT22;19219;44.500;11.188;2023-07-29T12:51:00;33.10;93.60
32865;DHT22;19219;44.500;11.188;2023-07-29T12:53:26;33.10;93.30
32865;DHT22;19219;44.500;11.188;2023-07-29T12:55:52;33.00;93.50
32865;DHT22;19219;44.500;11.188;2023-07-29T12:58:17;33.10;93.20
32865;DHT22;19219;44.500;11.188;2023-07-29T13:00:43;33.20;93.50
32865;DHT22;19219;44.500;11.188;2023-07-29T13:03:08;33.40;93.90
32865;DHT22;19219;44.500;11.188;2023-07-29T13:05:34;33.40;93.30
32865;DHT22;19219;44.500;11.188;2023-07-29T13:08:00;33.40;93.80
32865;DHT22;19219;44.500;11.188;2023-07-29T13:10:26;33.50;93.70
32865;DHT22;19219;44.500;11.188;2023-07-29T13:12:51;33.50;93.40
32865;DHT22;19219;44.500;11.188;2023-07-29T13:15:17;33.60;94.00
32865;DHT22;19219;44.500;11.188;2023-07-29T13:17:43;33.80;93.30
32865;DHT22;19219;44.500;11.188;2023-07-29T13:20:09;33.90;94.60
32865;DHT22;19219;44.500;11.188;2023-07-29T13:22:34;34.00;93.60
32865;DHT22;19219;44.500;11.188;2023-07-29T13:25:01;33.80;93.30
32865;DHT22;19219;44.500;11.188;2023-07-29T13:27:27;33.70;93.40
32865;DHT22;19219;44.500;11.188;2023-07-29T13:29:54;33.80;93.70
32865;DHT22;19219;44.500;11.188;2023-07-29T13:32:19;33.80;93.50
32865;DHT22;19219;44.500;11.188;2023-07-29T13:34:45;33.70;93.00
32865;DHT22;19219;44.500;11.188;2023-07-29T13:37:10;33.50;93.00
32865;DHT22;19219;44.500;11.188;2023-07-29T13:39:36;33.30;93.60
32865;DHT22;19219;44.500;11.188;2023-07-29T13:42:02;33.30;93.60
32865;DHT22;19219;44.500;11.188;2023-07-29T13:44:28;33.30;94.10
32865;DHT22;19219;44.500;11.188;2023-07-29T13:46:53;33.50;93.70
32865;DHT22;19219;44.500;11.188;2023-07-29T13:49:19;33.60;93.70
32865;DHT22;19219;44.500;11.188;2023-07-29T13:51:45;33.70;94.60
32865;DHT22;19219;44.500;11.188;2023-07-29T13:54:10;33.80;93.20
32865;DHT22;19219;44.500;11.188;2023-07-29T13:56:36;33.80;93.50
32865;DHT22;19219;44.500;11.188;2023-07-29T13:59:02;33.90;93.80
32865;DHT22;19219;44.500;11.188;2023-07-29T14:01:27;33.90;93.50
32865;DHT22;19219;44.500;11.188;2023-07-29T14:03:53;34.00;93.70
32865;DHT22;19219;44.500;11.188;2023-07-29T14:06:19;34.10;93.20
32865;DHT22;19219;44.500;11.188;2023-07-29T14:08:45;34.30;94.20
32865;DHT22;19219;44.500;11.188;2023-07-29T14:11:10;34.40;93.00
32865;DHT22;19219;44.500;11.188;2023-07-29T14:13:36;34.30;92.70
32865;DHT22;19219;44.500;11.188;2023-07-29T14:16:02;34.20;93.20
32865;DHT22;19219;44.500;11.188;2023-07-29T14:18:28;34.20;92.00
32865;DHT22;19219;44.500;11.188;2023-07-29T14:20:53;34.20;92.00
32865;DHT22;19219;44.500;11.188;2023-07-29T14:23:19;34.10;92.20
32865;DHT22;19219;44.500;11.188;2023-07-29T14:25:45;34.20;93.40
32865;DHT22;19219;44.500;11.188;2023-07-29T14:28:12;34.30;93.50
32865;DHT22;19219;44.500;11.188;2023-07-29T14:30:38;34.10;93.60
32865;DHT22;19219;44.500;11.188;2023-07-29T14:33:04;33.80;93.00
32865;DHT22;19219;44.500;11.188;2023-07-29T14:35:30;34.00;92.90
32865;DHT22;19219;44.500;11.188;2023-07-29T14:37:55;34.00;92.60
32865;DHT22;19219;44.500;11.188;2023-07-29T14:40:21;33.80;92.50
32865;DHT22;19219;44.500;11.188;2023-07-29T14:42:47;33.80;93.90
32865;DHT22;19219;44.500;11.188;2023-07-29T14:45:12;33.90;93.30
32865;DHT22;19219;44.500;11.188;2023-07-29T14:47:38;34.00;94.40
32865;DHT22;19219;44.500;11.188;2023-07-29T14:50:04;34.10;94.10
32865;DHT22;19219;44.500;11.188;2023-07-29T14:52:30;34.00;93.90
32865;DHT22;19219;44.500;11.188;2023-07-29T14:54:55;34.00;94.50
32865;DHT22;19219;44.500;11.188;2023-07-29T14:57:21;34.00;94.80
32865;DHT22;19219;44.500;11.188;2023-07-29T14:59:47;34.10;94.00
32865;DHT22;19219;44.500;11.188;2023-07-29T15:02:12;34.20;93.50
32865;DHT22;19219;44.500;11.188;2023-07-29T15:04:38;34.20;94.10
32865;DHT22;19219;44.500;11.188;2023-07-29T15:07:04;34.20;93.90
32865;DHT22;19219;44.500;11.188;2023-07-29T15:09:30;34.20;93.50
32865;DHT22;19219;44.500;11.188;2023-07-29T15:11:55;34.20;94.20
32865;DHT22;19219;44.500;11.188;2023-07-29T15:14:21;34.10;94.20
32865;DHT22;19219;44.500;11.188;2023-07-29T15:16:47;34.10;93.70
32865;DHT22;19219;44.500;11.188;2023-07-29T15:19:12;34.00;94.40
32865;DHT22;19219;44.500;11.188;2023-07-29T15:21:39;34.00;94.40
32865;DHT22;19219;44.500;11.188;2023-07-29T15:24:05;33.80;94.20
32865;DHT22;19219;44.500;11.188;2023-07-29T15:26:30;33.90;94.30
32865;DHT22;19219;44.500;11.188;2023-07-29T15:29:00;34.00;94.70
32865;DHT22;19219;44.500;11.188;2023-07-29T15:31:25;34.00;94.60
32865;DHT22;19219;44.500;11.188;2023-07-29T15:33:51;33.80;94.30
32865;DHT22;19219;44.500;11.188;2023-07-29T15:36:17;33.60;94.50
32865;DHT22;19219;44.500;11.188;2023-07-29T15:38:43;33.60;93.90